Time;durP1;ratioP1;P1;durP2;ratioP2;P2;SDS_P1;SDS_P2;PMS_P1;PMS_P2;Temp;Humidity;BMP_temperature;BMP_pressure;BME280_temperature;BME280_humidity;BME280_pressure;Samples;Min_cycle;Max_cycle;Signal;HPM_P1;HPM_P2
2022/08/31 00:05:22;;;;;;;;;;;;;;;17.15;81.80;101007.34;4981150;28;1475;-83
2022/08/31 00:07:47;;;;;;;;;;;;;;;17.08;82.46;101018.00;4984688;28;1690;-82
2022/08/31 00:10:17;;;;;;;;;;;;;;;17.11;81.51;100998.81;4977961;28;1899;-82
2022/08/31 00:12:43;;;;;;;;;;;;;;;17.13;81.16;101010.41;4997332;28;1614;-83
2022/08/31 00:15:10;;;;;;;;;;;;;;;16.99;81.97;101009.63;4979205;28;1684;-83
2022/08/31 00:17:35;;;;;;;;;;;;;;;17.01;81.48;101010.94;4995661;28;1351;-83
2022/08/31 00:20:00;;;;;;;;;;;;;;;17.02;82.67;101007.03;4996484;28;1625;-82
2022/08/31 00:22:25;;;;;;;;;;;;;;;16.94;82.80;101013.31;4996294;28;1768;-83
2022/08/31 00:24:50;;;;;;;;;;;;;;;16.94;82.73;101009.72;4972453;28;1646;-82
2022/08/31 00:27:16;;;;;;;;;;;;;;;17.00;82.76;101002.97;4992523;28;1119;-83
2022/08/31 00:29:41;;;;;;;;;;;;;;;16.98;83.30;101005.22;4994262;28;1932;-82
2022/08/31 00:32:06;;;;;;;;;;;;;;;16.82;82.98;101007.50;4995512;28;1597;-83
2022/08/31 00:34:31;;;;;;;;;;;;;;;16.84;82.69;101007.22;4993625;28;1585;-83
2022/08/31 00:36:58;;;;;;;;;;;;;;;16.91;82.42;101010.38;4987535;28;1697;-83
2022/08/31 00:39:23;;;;;;;;;;;;;;;16.90;82.53;101008.72;4969114;28;1668;-83
2022/08/31 00:41:49;;;;;;;;;;;;;;;16.92;83.12;101012.81;4996919;28;1601;-83
2022/08/31 00:44:14;;;;;;;;;;;;;;;16.91;83.30;101013.13;4995043;28;1343;-83
2022/08/31 00:46:40;;;;;;;;;;;;;;;16.86;83.57;101014.03;4980628;28;1348;-83
2022/08/31 00:49:08;;;;;;;;;;;;;;;16.79;83.01;101013.66;4978876;28;1871;-83
2022/08/31 00:51:38;;;;;;;;;;;;;;;16.73;83.34;101020.44;4997942;28;1445;-83
2022/08/31 00:54:04;;;;;;;;;;;;;;;16.77;84.03;101021.44;4999694;28;1729;-83
2022/08/31 00:56:30;;;;;;;;;;;;;;;16.76;83.23;101025.31;4984482;28;1343;-83
2022/08/31 00:58:56;;;;;;;;;;;;;;;16.76;83.40;101016.25;4985497;28;1504;-83
2022/08/31 01:01:22;;;;;;;;;;;;;;;16.73;83.54;101014.91;4998130;28;1851;-83
2022/08/31 01:03:48;;;;;;;;;;;;;;;16.71;83.50;101028.19;5001492;28;1270;-83
2022/08/31 01:06:14;;;;;;;;;;;;;;;16.75;83.48;101018.19;4980295;28;1837;-83
2022/08/31 01:08:40;;;;;;;;;;;;;;;16.82;83.89;101017.75;4998312;28;1957;-83
2022/08/31 01:11:06;;;;;;;;;;;;;;;16.82;83.66;101020.53;4998397;28;1617;-82
2022/08/31 01:13:31;;;;;;;;;;;;;;;16.77;84.21;101015.91;4997083;28;1624;-83
2022/08/31 01:15:59;;;;;;;;;;;;;;;16.72;83.73;101018.78;4997500;28;1300;-83
2022/08/31 01:18:24;;;;;;;;;;;;;;;16.74;83.33;101032.31;4998181;28;1272;-83
2022/08/31 01:20:58;;;;;;;;;;;;;;;16.71;84.47;101019.91;4980350;28;1510;-83
2022/08/31 01:23:25;;;;;;;;;;;;;;;16.74;83.90;101016.53;4981465;28;1603;-83
2022/08/31 01:25:53;;;;;;;;;;;;;;;16.67;84.17;101024.44;4998079;28;1209;-83
2022/08/31 01:28:18;;;;;;;;;;;;;;;16.63;84.26;101032.50;4979714;28;1949;-83
2022/08/31 01:30:55;;;;;;;;;;;;;;;16.64;83.79;101019.50;4997466;28;1728;-83
2022/08/31 01:33:20;;;;;;;;;;;;;;;16.58;83.88;101018.78;4997454;28;1447;-82
2022/08/31 01:35:45;;;;;;;;;;;;;;;16.53;85.13;101023.56;4997282;28;1342;-83
2022/08/31 01:38:12;;;;;;;;;;;;;;;16.52;85.02;101019.16;4979304;28;1665;-83
2022/08/31 01:40:44;;;;;;;;;;;;;;;16.49;85.29;101025.31;4995645;28;1206;-83
2022/08/31 01:43:09;;;;;;;;;;;;;;;16.47;84.92;101030.34;4979634;28;1672;-82
2022/08/31 01:45:34;;;;;;;;;;;;;;;16.50;84.30;101026.97;4995785;28;1461;-82
2022/08/31 01:47:59;;;;;;;;;;;;;;;16.54;84.41;101034.31;4975503;28;1971;-83
2022/08/31 01:50:24;;;;;;;;;;;;;;;16.56;84.83;101026.56;4988957;28;1960;-83
2022/08/31 01:52:49;;;;;;;;;;;;;;;16.42;85.43;101024.91;4975163;28;1823;-82
2022/08/31 01:55:14;;;;;;;;;;;;;;;16.42;85.56;101030.41;4980141;28;1733;-83
2022/08/31 01:57:39;;;;;;;;;;;;;;;16.40;85.46;101025.22;4997941;28;1404;-82
2022/08/31 02:00:07;;;;;;;;;;;;;;;16.40;85.57;101032.69;4979957;28;1173;-83
2022/08/31 02:02:32;;;;;;;;;;;;;;;16.36;85.49;101023.38;4994994;28;1380;-83
2022/08/31 02:04:57;;;;;;;;;;;;;;;16.31;86.40;101035.34;4997671;28;1459;-83
2022/08/31 02:07:24;;;;;;;;;;;;;;;16.25;86.53;101026.31;4997268;28;1695;-83
2022/08/31 02:09:49;;;;;;;;;;;;;;;16.19;86.43;101023.97;4979574;28;1937;-83
2022/08/31 02:12:14;;;;;;;;;;;;;;;16.10;87.07;101023.84;4998077;28;1356;-83
2022/08/31 02:14:39;;;;;;;;;;;;;;;16.04;86.26;101024.25;4980307;28;1457;-83
2022/08/31 02:17:04;;;;;;;;;;;;;;;16.00;87.26;101028.72;4998583;28;1403;-83
2022/08/31 02:19:29;;;;;;;;;;;;;;;16.03;87.28;101020.69;5000996;28;1497;-84
2022/08/31 02:21:54;;;;;;;;;;;;;;;15.98;86.73;101026.31;4979942;28;1634;-83
2022/08/31 02:24:20;;;;;;;;;;;;;;;15.88;87.26;101027.31;4990129;28;1700;-84
2022/08/31 02:26:45;;;;;;;;;;;;;;;15.89;87.80;101019.84;4998598;28;1020;-83
2022/08/31 02:29:10;;;;;;;;;;;;;;;15.85;87.75;101016.84;4984140;28;1953;-83
2022/08/31 02:31:35;;;;;;;;;;;;;;;15.82;87.70;101016.66;4979941;28;1350;-83
2022/08/31 02:34:00;;;;;;;;;;;;;;;15.77;87.46;101013.97;4997036;28;1510;-83
2022/08/31 02:36:26;;;;;;;;;;;;;;;15.72;87.72;101016.81;4972493;28;1734;-83
2022/08/31 02:38:51;;;;;;;;;;;;;;;15.69;87.62;101014.66;4979444;28;1779;-83
2022/08/31 02:41:16;;;;;;;;;;;;;;;15.66;87.95;101018.00;4979369;28;1581;-83
2022/08/31 02:43:41;;;;;;;;;;;;;;;15.60;87.94;101013.72;4996809;28;1578;-83
2022/08/31 02:46:06;;;;;;;;;;;;;;;15.57;88.08;101008.81;4996994;28;1410;-83
2022/08/31 02:48:32;;;;;;;;;;;;;;;15.53;88.06;101016.81;4980231;28;1898;-83
2022/08/31 02:51:01;;;;;;;;;;;;;;;15.50;88.06;101012.72;4996259;28;1433;-83
2022/08/31 02:53:26;;;;;;;;;;;;;;;15.50;88.24;101006.38;4997033;28;1415;-83
2022/08/31 02:55:52;;;;;;;;;;;;;;;15.49;88.47;101004.75;4996987;28;1544;-83
2022/08/31 02:58:17;;;;;;;;;;;;;;;15.45;88.43;101010.06;4987708;28;1645;-83
2022/08/31 03:00:44;;;;;;;;;;;;;;;15.41;87.75;101011.75;4993089;28;1120;-83
2022/08/31 03:03:09;;;;;;;;;;;;;;;15.37;88.40;101010.75;4998055;28;1800;-83
2022/08/31 03:05:34;;;;;;;;;;;;;;;15.34;88.05;101018.78;5035314;23;1921;-80
2022/08/31 03:07:59;;;;;;;;;;;;;;;15.22;88.62;101015.69;4998276;28;1685;-80
2022/08/31 03:10:25;;;;;;;;;;;;;;;15.24;89.00;101011.47;5009536;28;1894;-81
2022/08/31 03:12:51;;;;;;;;;;;;;;;15.21;88.59;101011.28;4984650;28;1420;-80
2022/08/31 03:15:17;;;;;;;;;;;;;;;15.18;89.03;101011.88;4994583;28;1491;-80
2022/08/31 03:17:43;;;;;;;;;;;;;;;15.21;89.14;101012.09;4982491;28;1484;-81
2022/08/31 03:20:09;;;;;;;;;;;;;;;15.18;88.18;101009.09;4983486;28;1699;-80
2022/08/31 03:22:34;;;;;;;;;;;;;;;15.13;88.95;101010.84;4971424;28;1415;-81
2022/08/31 03:24:59;;;;;;;;;;;;;;;15.11;87.97;101004.78;4975934;28;1751;-81
2022/08/31 03:27:25;;;;;;;;;;;;;;;15.08;88.82;101008.13;4980589;28;1515;-80
2022/08/31 03:29:51;;;;;;;;;;;;;;;15.05;88.65;101010.69;4983568;28;1887;-80
2022/08/31 03:32:17;;;;;;;;;;;;;;;15.00;88.25;101000.53;4980749;28;1291;-80
2022/08/31 03:34:42;;;;;;;;;;;;;;;14.90;88.79;100997.09;4976263;28;1529;-81
2022/08/31 03:37:07;;;;;;;;;;;;;;;14.84;89.51;100990.03;4990808;28;1745;-80
2022/08/31 03:39:32;;;;;;;;;;;;;;;14.81;88.96;101001.63;4986420;28;1400;-80
2022/08/31 03:41:57;;;;;;;;;;;;;;;14.82;89.33;101003.28;4969200;28;1386;-80
2022/08/31 03:44:23;;;;;;;;;;;;;;;14.77;88.74;101007.75;4963415;28;1842;-81
2022/08/31 03:46:49;;;;;;;;;;;;;;;14.72;89.37;101020.75;4975991;28;1374;-81
2022/08/31 03:49:14;;;;;;;;;;;;;;;14.71;88.31;101027.41;4979153;28;1961;-82
2022/08/31 03:51:39;;;;;;;;;;;;;;;14.66;89.69;101024.72;4976874;28;1378;-80
2022/08/31 03:54:04;;;;;;;;;;;;;;;14.68;89.16;101023.31;4968242;28;1489;-81
2022/08/31 03:56:30;;;;;;;;;;;;;;;14.68;89.38;101028.81;4970418;28;1437;-82
2022/08/31 03:58:55;;;;;;;;;;;;;;;14.68;88.24;101019.72;4977350;28;1478;-81
2022/08/31 04:01:20;;;;;;;;;;;;;;;14.66;87.62;101020.03;4979879;28;1444;-81
2022/08/31 04:03:45;;;;;;;;;;;;;;;14.62;88.77;101021.75;4976965;28;1595;-80
2022/08/31 04:06:11;;;;;;;;;;;;;;;14.63;88.94;101025.31;4991513;28;1468;-81
2022/08/31 04:08:37;;;;;;;;;;;;;;;14.63;88.12;101025.31;4972311;28;1906;-80
2022/08/31 04:11:10;;;;;;;;;;;;;;;14.56;88.55;101022.06;4982125;28;1550;-81
2022/08/31 04:13:36;;;;;;;;;;;;;;;14.53;88.21;101023.50;4982298;28;1374;-80
2022/08/31 04:16:02;;;;;;;;;;;;;;;14.50;88.20;101023.25;4970791;28;1382;-80
2022/08/31 04:18:27;;;;;;;;;;;;;;;14.48;89.08;101031.00;4979577;28;1391;-80
2022/08/31 04:20:52;;;;;;;;;;;;;;;14.44;88.03;101033.53;4980374;28;1423;-80
2022/08/31 04:23:17;;;;;;;;;;;;;;;14.44;88.07;101028.00;4985791;28;1702;-80
2022/08/31 04:25:43;;;;;;;;;;;;;;;14.41;88.42;101044.28;4980709;28;1742;-80
2022/08/31 04:28:08;;;;;;;;;;;;;;;14.42;88.59;101048.69;4992372;28;1875;-80
2022/08/31 04:30:40;;;;;;;;;;;;;;;14.36;88.71;101043.22;4986716;28;1578;-80
2022/08/31 04:33:06;;;;;;;;;;;;;;;14.36;88.35;101045.16;4977812;28;1138;-80
2022/08/31 04:35:31;;;;;;;;;;;;;;;14.27;89.45;101047.72;4975678;28;1569;-80
2022/08/31 04:37:56;;;;;;;;;;;;;;;14.30;89.81;101044.38;4985881;28;1542;-80
2022/08/31 04:40:21;;;;;;;;;;;;;;;14.30;88.44;101051.81;4980021;28;1817;-80
2022/08/31 04:42:47;;;;;;;;;;;;;;;14.27;88.61;101056.00;4983442;28;1431;-79
2022/08/31 04:45:12;;;;;;;;;;;;;;;14.29;89.33;101050.97;4981487;28;1580;-79
2022/08/31 04:47:37;;;;;;;;;;;;;;;14.32;88.46;101053.16;4981877;28;1588;-79
2022/08/31 04:50:03;;;;;;;;;;;;;;;14.30;88.03;101055.38;4980566;28;1950;-81
2022/08/31 04:52:28;;;;;;;;;;;;;;;14.28;88.21;101065.06;4971672;28;1660;-81
2022/08/31 04:54:53;;;;;;;;;;;;;;;14.24;89.00;101062.06;4987480;28;1490;-80
2022/08/31 04:57:18;;;;;;;;;;;;;;;14.28;89.12;101054.06;4976462;28;1728;-79
2022/08/31 04:59:43;;;;;;;;;;;;;;;14.38;90.12;101059.44;4977445;28;1528;-79
2022/08/31 05:02:08;;;;;;;;;;;;;;;14.42;88.92;101060.53;4970130;28;1392;-80
2022/08/31 05:04:34;;;;;;;;;;;;;;;14.46;89.26;101063.53;4979862;28;1358;-80
2022/08/31 05:06:59;;;;;;;;;;;;;;;14.46;89.05;101061.56;5000661;28;1660;-80
2022/08/31 05:09:24;;;;;;;;;;;;;;;14.45;89.66;101056.38;4979791;28;1903;-80
2022/08/31 05:11:50;;;;;;;;;;;;;;;14.50;89.55;101068.16;4981378;28;1533;-82
2022/08/31 05:14:15;;;;;;;;;;;;;;;14.50;90.17;101057.13;4980928;28;1151;-80
2022/08/31 05:16:41;;;;;;;;;;;;;;;14.53;89.76;101062.06;4981352;28;1256;-80
2022/08/31 05:19:06;;;;;;;;;;;;;;;14.54;90.74;101066.47;4982138;28;1067;-80
2022/08/31 05:21:34;;;;;;;;;;;;;;;14.54;90.32;101068.41;4981649;28;928;-80
2022/08/31 05:24:00;;;;;;;;;;;;;;;14.45;91.24;101070.16;4981455;28;987;-80
2022/08/31 05:26:27;;;;;;;;;;;;;;;14.43;91.22;101077.88;4981300;28;1672;-81
2022/08/31 05:28:52;;;;;;;;;;;;;;;14.46;91.16;101080.06;4976799;28;1941;-80
2022/08/31 05:31:18;;;;;;;;;;;;;;;14.45;90.19;101078.41;4973385;28;1099;-81
2022/08/31 05:33:44;;;;;;;;;;;;;;;14.47;90.13;101088.00;4980186;28;1753;-80
2022/08/31 05:36:10;;;;;;;;;;;;;;;14.48;90.62;101081.38;4975827;28;1608;-80
2022/08/31 05:38:35;;;;;;;;;;;;;;;14.47;91.42;101082.50;4965153;28;1094;-81
2022/08/31 05:41:00;;;;;;;;;;;;;;;14.50;90.91;101087.44;4982112;28;1517;-80
2022/08/31 05:43:26;;;;;;;;;;;;;;;14.56;91.04;101085.44;4972450;28;1676;-80
2022/08/31 05:45:52;;;;;;;;;;;;;;;14.57;91.47;101087.06;4976134;28;1409;-81
2022/08/31 05:48:17;;;;;;;;;;;;;;;14.59;91.82;101091.19;4970573;28;1965;-81
2022/08/31 05:50:42;;;;;;;;;;;;;;;14.63;90.83;101094.19;4982137;28;1375;-81
2022/08/31 05:53:07;;;;;;;;;;;;;;;14.67;90.83;101093.31;4983357;28;1347;-80
2022/08/31 05:55:32;;;;;;;;;;;;;;;14.74;91.16;101095.69;4979979;28;1586;-82
2022/08/31 05:57:58;;;;;;;;;;;;;;;14.76;90.79;101102.56;4978460;28;1451;-82
2022/08/31 06:47:09;;;;;;;;;;;;;;;15.38;91.50;101117.22;5123559;27;1480;-84
2022/08/31 06:49:34;;;;;;;;;;;;;;;15.34;90.60;101118.91;5107172;28;1653;-82
2022/08/31 06:51:59;;;;;;;;;;;;;;;15.32;90.27;101118.38;5121350;22;2080;-84
2022/08/31 06:54:24;;;;;;;;;;;;;;;15.26;89.71;101124.25;5083398;28;1967;-83
2022/08/31 06:56:50;;;;;;;;;;;;;;;15.28;89.56;101119.28;5075354;28;1336;-84
2022/08/31 06:59:15;;;;;;;;;;;;;;;15.30;89.32;101126.16;5075132;28;1449;-84
2022/08/31 07:01:40;;;;;;;;;;;;;;;15.30;90.00;101122.56;5074755;28;1677;-85
2022/08/31 07:04:07;;;;;;;;;;;;;;;15.25;90.13;101120.69;5074715;28;1300;-83
2022/08/31 07:06:40;;;;;;;;;;;;;;;15.29;90.19;101123.69;5074427;28;1344;-83
2022/08/31 07:09:07;;;;;;;;;;;;;;;15.32;91.13;101118.38;5074776;28;1282;-83
2022/08/31 07:11:37;;;;;;;;;;;;;;;15.32;89.75;101131.34;5073687;28;1444;-83
2022/08/31 07:14:02;;;;;;;;;;;;;;;15.31;90.52;101122.25;5092819;28;772;-83
2022/08/31 07:16:28;;;;;;;;;;;;;;;15.33;90.13;101138.50;5073766;28;1933;-84
2022/08/31 07:18:54;;;;;;;;;;;;;;;15.32;90.19;101131.34;5073965;28;1247;-82
2022/08/31 07:21:24;;;;;;;;;;;;;;;15.31;90.39;101130.53;5091496;28;1591;-83
2022/08/31 07:23:50;;;;;;;;;;;;;;;15.32;89.74;101134.94;5073406;28;1203;-84
2022/08/31 07:26:17;;;;;;;;;;;;;;;15.30;88.82;101137.19;5092096;28;837;-83
2022/08/31 07:28:43;;;;;;;;;;;;;;;15.34;89.16;101132.69;5092030;28;988;-82
2022/08/31 07:31:09;;;;;;;;;;;;;;;15.35;89.72;101137.09;5084950;28;1575;-83
2022/08/31 07:33:37;;;;;;;;;;;;;;;15.38;88.88;101139.28;5054066;28;1266;-83
2022/08/31 07:36:12;;;;;;;;;;;;;;;15.44;89.05;101131.75;5053561;28;1955;-83
2022/08/31 07:44:09;;;;;;;;;;;;;;;15.60;89.39;101129.59;5093457;28;1558;-83
2022/08/31 07:46:35;;;;;;;;;;;;;;;15.64;89.16;101134.25;5093310;28;1149;-84
2022/08/31 07:49:00;;;;;;;;;;;;;;;15.70;89.47;101132.22;5068275;28;1337;-84
2022/08/31 07:51:25;;;;;;;;;;;;;;;15.78;89.04;101134.31;5077562;28;1642;-84
2022/08/31 07:53:51;;;;;;;;;;;;;;;15.81;88.97;101136.47;5060811;28;1148;-84
2022/08/31 07:56:17;;;;;;;;;;;;;;;15.84;88.49;101135.84;5078272;28;1964;-83
2022/08/31 07:58:42;;;;;;;;;;;;;;;15.86;88.81;101133.63;5078777;28;941;-84
2022/08/31 08:01:08;;;;;;;;;;;;;;;15.87;88.71;101135.25;5070510;28;1670;-84
2022/08/31 08:03:33;;;;;;;;;;;;;;;15.92;87.78;101148.97;5075217;28;1216;-84
2022/08/31 08:05:58;;;;;;;;;;;;;;;15.99;87.77;101141.13;5063313;28;1028;-84
2022/08/31 08:08:23;;;;;;;;;;;;;;;16.04;87.01;101154.88;5066293;28;1297;-84
2022/08/31 08:10:49;;;;;;;;;;;;;;;16.10;86.06;101147.31;5066394;28;1646;-83
2022/08/31 08:13:18;;;;;;;;;;;;;;;16.14;85.44;101157.47;5066896;28;1207;-83
2022/08/31 08:15:43;;;;;;;;;;;;;;;16.15;85.15;101156.34;5067498;28;1883;-82
2022/08/31 08:18:11;;;;;;;;;;;;;;;16.21;84.63;101157.91;5067292;28;1228;-83
2022/08/31 08:20:36;;;;;;;;;;;;;;;16.29;83.72;101161.91;5084070;28;1614;-83
2022/08/31 08:23:01;;;;;;;;;;;;;;;16.38;84.23;101159.25;5097605;28;1684;-84
2022/08/31 08:25:26;;;;;;;;;;;;;;;16.44;84.91;101152.53;5065914;28;1328;-84
2022/08/31 08:27:55;;;;;;;;;;;;;;;16.43;84.08;101148.94;5066613;28;1305;-85
2022/08/31 08:30:20;;;;;;;;;;;;;;;16.46;84.70;101151.09;5068126;28;1311;-84
2022/08/31 08:32:46;;;;;;;;;;;;;;;16.52;83.85;101158.16;5084879;28;1658;-85
2022/08/31 08:35:12;;;;;;;;;;;;;;;16.57;84.20;101158.09;5101520;28;1897;-85
2022/08/31 08:37:38;;;;;;;;;;;;;;;16.62;83.32;101158.00;5066471;28;1231;-85
2022/08/31 08:40:04;;;;;;;;;;;;;;;16.71;82.65;101163.66;5067018;28;1205;-84
2022/08/31 08:42:30;;;;;;;;;;;;;;;16.78;82.75;101168.78;5066353;28;1590;-85
2022/08/31 08:44:55;;;;;;;;;;;;;;;16.81;81.65;101169.00;5064538;28;1262;-84
2022/08/31 08:47:25;;;;;;;;;;;;;;;16.88;80.74;101172.19;5047782;28;1286;-84
2022/08/31 08:49:54;;;;;;;;;;;;;;;16.94;81.13;101170.13;5047489;28;1311;-83
2022/08/31 08:52:28;;;;;;;;;;;;;;;16.97;79.62;101167.56;5047297;28;1231;-84
2022/08/31 08:54:55;;;;;;;;;;;;;;;17.01;79.92;101173.31;5082691;28;1878;-85
2022/08/31 08:57:25;;;;;;;;;;;;;;;17.05;79.88;101170.75;5085899;28;889;-85
2022/08/31 08:59:52;;;;;;;;;;;;;;;17.06;79.33;101172.38;5085753;28;988;-85
2022/08/31 09:02:29;;;;;;;;;;;;;;;17.07;79.12;101165.72;5085887;28;1208;-85
2022/08/31 09:05:03;;;;;;;;;;;;;;;17.07;79.32;101172.09;5055087;28;1567;-85
2022/08/31 09:07:40;;;;;;;;;;;;;;;17.05;79.51;101167.97;5047989;28;1303;-85
2022/08/31 09:10:25;;;;;;;;;;;;;;;17.01;80.55;101168.59;5067437;28;861;-85
2022/08/31 09:13:00;;;;;;;;;;;;;;;17.05;79.82;101170.75;5082159;28;1566;-85
2022/08/31 09:15:36;;;;;;;;;;;;;;;17.04;80.92;101169.91;5060399;28;1870;-83
2022/08/31 09:18:07;;;;;;;;;;;;;;;17.03;80.42;101169.09;5068204;28;1354;-83
2022/08/31 09:20:32;;;;;;;;;;;;;;;17.01;80.41;101165.81;5086107;28;1036;-84
2022/08/31 09:22:59;;;;;;;;;;;;;;;17.06;79.48;101164.09;5060787;28;1651;-84
2022/08/31 09:25:36;;;;;;;;;;;;;;;17.08;78.96;101159.91;5061885;28;1428;-84
2022/08/31 09:28:02;;;;;;;;;;;;;;;17.33;78.05;101166.84;5064693;28;867;-85
2022/08/31 09:30:34;;;;;;;;;;;;;;;17.50;79.46;101157.91;5048540;28;1518;-83
2022/08/31 09:32:59;;;;;;;;;;;;;;;17.64;77.32;101158.69;5046063;28;1304;-83
2022/08/31 09:35:41;;;;;;;;;;;;;;;17.63;77.89;101149.56;5046408;28;1926;-84
2022/08/31 09:38:10;;;;;;;;;;;;;;;17.64;78.61;101153.97;5083240;28;1713;-85
2022/08/31 09:40:35;;;;;;;;;;;;;;;17.55;79.02;101166.06;5085251;28;889;-84
2022/08/31 09:43:05;;;;;;;;;;;;;;;17.49;77.19;101159.03;5063450;28;1178;-84
2022/08/31 09:45:34;;;;;;;;;;;;;;;17.52;77.49;101164.78;5085987;28;1354;-84
2022/08/31 09:48:00;;;;;;;;;;;;;;;17.51;77.63;101154.81;5065176;28;1638;-84
2022/08/31 09:50:44;;;;;;;;;;;;;;;17.56;78.39;101157.47;5086671;28;944;-84
2022/08/31 09:56:13;;;;;;;;;;;;;;;17.59;76.92;101156.03;5090897;28;1947;-82
2022/08/31 09:58:39;;;;;;;;;;;;;;;17.69;78.41;101158.59;5075423;28;1191;-84
2022/08/31 10:01:11;;;;;;;;;;;;;;;17.84;76.27;101149.94;5074453;28;1302;-84
2022/08/31 10:03:37;;;;;;;;;;;;;;;17.96;77.13;101158.47;5085795;28;893;-84
2022/08/31 10:06:03;;;;;;;;;;;;;;;17.91;77.29;101155.84;5087747;28;865;-83
2022/08/31 10:08:38;;;;;;;;;;;;;;;17.98;77.75;101152.63;5085271;28;1406;-83
2022/08/31 10:11:14;;;;;;;;;;;;;;;18.03;75.92;101152.53;5085672;28;1244;-84
2022/08/31 10:13:42;;;;;;;;;;;;;;;18.12;77.39;101153.38;5066902;28;1310;-84
2022/08/31 10:16:15;;;;;;;;;;;;;;;18.17;76.28;101150.50;5066911;28;1957;-85
2022/08/31 10:18:45;;;;;;;;;;;;;;;18.21;75.56;101151.50;5082750;28;986;-84
2022/08/31 10:21:14;;;;;;;;;;;;;;;18.20;75.03;101152.66;5057319;28;1646;-83
2022/08/31 10:23:53;;;;;;;;;;;;;;;18.19;73.93;101151.00;5074876;28;1434;-84
2022/08/31 10:26:30;;;;;;;;;;;;;;;18.24;74.77;101150.06;5085309;28;1148;-85
2022/08/31 10:28:58;;;;;;;;;;;;;;;18.27;75.89;101147.47;5087169;28;881;-83
2022/08/31 10:31:32;;;;;;;;;;;;;;;18.29;74.09;101128.56;5087324;28;1550;-83
2022/08/31 10:36:53;;;;;;;;;;;;;;;18.43;72.75;101134.84;5093898;28;1886;-82
2022/08/31 10:39:37;;;;;;;;;;;;;;;18.44;73.88;101127.38;5075415;28;1191;-84
2022/08/31 10:42:05;;;;;;;;;;;;;;;18.52;74.38;101127.41;5070973;28;1586;-84
2022/08/31 10:44:35;;;;;;;;;;;;;;;18.65;73.21;101131.22;5087618;28;1136;-84
2022/08/31 10:47:04;;;;;;;;;;;;;;;18.71;73.36;101134.72;5065537;28;1317;-84
2022/08/31 10:49:34;;;;;;;;;;;;;;;18.64;72.87;101139.88;5075393;28;857;-83
2022/08/31 10:52:09;;;;;;;;;;;;;;;18.68;71.93;101127.84;5074312;28;1492;-83
2022/08/31 10:54:39;;;;;;;;;;;;;;;18.78;72.50;101118.41;5075224;28;1965;-83
2022/08/31 10:57:13;;;;;;;;;;;;;;;18.84;71.53;101131.00;5075215;28;834;-83
2022/08/31 10:59:57;;;;;;;;;;;;;;;18.88;72.15;101120.91;5075494;28;984;-83
2022/08/31 11:02:30;;;;;;;;;;;;;;;18.94;73.20;101121.56;5056415;28;1697;-83
2022/08/31 11:05:24;;;;;;;;;;;;;;;18.93;72.96;101111.59;5075362;28;1048;-83
2022/08/31 11:08:11;;;;;;;;;;;;;;;19.00;73.50;101110.00;5055832;28;1303;-84
2022/08/31 11:10:47;;;;;;;;;;;;;;;19.03;70.62;101119.63;5049897;28;1578;-84
2022/08/31 11:13:24;;;;;;;;;;;;;;;19.10;70.33;101118.03;5055714;28;1064;-83
2022/08/31 11:16:09;;;;;;;;;;;;;;;19.27;72.29;101114.47;5055240;28;1897;-84
2022/08/31 11:18:50;;;;;;;;;;;;;;;19.27;71.50;101114.47;5055116;28;1074;-84
2022/08/31 11:21:25;;;;;;;;;;;;;;;19.25;72.24;101106.47;5056667;28;1623;-85
2022/08/31 11:24:09;;;;;;;;;;;;;;;19.30;70.85;101111.06;5072080;28;1259;-83
2022/08/31 11:26:46;;;;;;;;;;;;;;;19.31;70.07;101111.88;5068400;28;1231;-83
2022/08/31 11:29:18;;;;;;;;;;;;;;;19.26;69.49;101105.31;5060812;28;1209;-83
2022/08/31 11:31:45;;;;;;;;;;;;;;;19.30;70.30;101096.34;5061635;28;1655;-84
2022/08/31 11:34:21;;;;;;;;;;;;;;;19.38;71.11;101101.91;5048380;28;1326;-84
2022/08/31 11:36:48;;;;;;;;;;;;;;;19.52;70.53;101099.84;5048878;28;1921;-85
2022/08/31 11:39:18;;;;;;;;;;;;;;;19.57;70.01;101101.63;5049238;28;1339;-85
2022/08/31 11:41:46;;;;;;;;;;;;;;;19.61;69.64;101092.31;5069474;28;1638;-82
2022/08/31 11:44:28;;;;;;;;;;;;;;;19.74;68.87;101095.25;5080485;28;933;-83
2022/08/31 11:46:59;;;;;;;;;;;;;;;19.82;69.78;101100.00;5065289;28;1215;-84
2022/08/31 11:49:44;;;;;;;;;;;;;;;19.65;68.75;101098.84;5061227;28;1248;-84
2022/08/31 11:52:24;;;;;;;;;;;;;;;19.57;68.27;101087.72;5082237;28;1611;-84
2022/08/31 11:54:49;;;;;;;;;;;;;;;19.61;69.05;101085.94;5048222;28;1902;-84
2022/08/31 11:57:19;;;;;;;;;;;;;;;19.63;69.66;101092.81;5059469;28;1326;-84
2022/08/31 11:59:45;;;;;;;;;;;;;;;19.63;69.22;101078.13;5077528;28;822;-83
2022/08/31 12:02:20;;;;;;;;;;;;;;;19.59;68.00;101086.28;5058095;28;1655;-83
2022/08/31 12:04:46;;;;;;;;;;;;;;;19.57;69.19;101080.22;5067811;28;1436;-83
2022/08/31 12:07:29;;;;;;;;;;;;;;;19.57;68.94;101079.41;5061929;28;1211;-85
2022/08/31 12:10:13;;;;;;;;;;;;;;;19.57;68.50;101084.94;5067342;28;1350;-85
2022/08/31 12:12:42;;;;;;;;;;;;;;;19.67;68.09;101084.63;5062561;28;1460;-82
2022/08/31 12:15:26;;;;;;;;;;;;;;;19.71;66.59;101082.84;5059589;28;1941;-82
2022/08/31 12:18:00;;;;;;;;;;;;;;;19.81;66.72;101084.47;5077414;28;803;-83
2022/08/31 12:23:35;;;;;;;;;;;;;;;19.88;66.56;101082.00;5076923;28;1615;-83
2022/08/31 12:26:00;;;;;;;;;;;;;;;19.85;65.94;101085.44;5039530;28;1352;-84
2022/08/31 12:28:53;;;;;;;;;;;;;;;19.87;66.67;101083.97;5038937;28;1044;-84
2022/08/31 12:31:18;;;;;;;;;;;;;;;19.88;67.32;101082.84;5059825;28;1634;-83
2022/08/31 12:33:52;;;;;;;;;;;;;;;19.87;65.92;101078.41;5076508;28;1625;-84
2022/08/31 12:36:23;;;;;;;;;;;;;;;19.84;67.22;101075.47;5077167;28;1925;-84
2022/08/31 12:39:03;;;;;;;;;;;;;;;19.82;67.21;101081.34;5077479;28;1375;-83
2022/08/31 12:41:28;;;;;;;;;;;;;;;19.77;67.28;101081.53;5076192;28;1685;-83
2022/08/31 12:43:53;;;;;;;;;;;;;;;19.88;67.25;101071.72;5059293;28;1111;-84
2022/08/31 12:46:27;;;;;;;;;;;;;;;19.90;67.88;101077.78;5059062;28;977;-84
2022/08/31 12:49:09;;;;;;;;;;;;;;;19.94;66.17;101075.13;5077194;28;1039;-84
2022/08/31 12:51:55;;;;;;;;;;;;;;;20.05;66.10;101070.88;5082779;22;1940;-83
2022/08/31 12:54:26;;;;;;;;;;;;;;;20.12;65.35;101068.41;5069345;28;1092;-82
2022/08/31 12:56:51;;;;;;;;;;;;;;;20.22;65.40;101064.44;5078098;28;1945;-83
2022/08/31 12:59:34;;;;;;;;;;;;;;;20.31;66.15;101065.25;5076238;28;1278;-83
2022/08/31 13:02:00;;;;;;;;;;;;;;;20.44;65.16;101057.84;5072366;28;1514;-84
2022/08/31 13:04:25;;;;;;;;;;;;;;;20.58;63.78;101062.06;5065813;28;1167;-83
2022/08/31 13:06:51;;;;;;;;;;;;;;;21.05;63.22;101061.97;5056796;28;945;-83
2022/08/31 13:09:27;;;;;;;;;;;;;;;25.56;54.35;101054.31;5055924;28;1330;-83
2022/08/31 13:11:54;;;;;;;;;;;;;;;29.88;43.68;101042.03;5060311;28;1576;-84
2022/08/31 13:14:21;;;;;;;;;;;;;;;31.66;40.09;101041.97;5058615;28;996;-81
2022/08/31 13:17:02;;;;;;;;;;;;;;;32.54;39.13;101040.63;5056454;28;1898;-83
2022/08/31 13:19:31;;;;;;;;;;;;;;;33.07;37.72;101031.66;5063197;28;1596;-81
2022/08/31 13:21:58;;;;;;;;;;;;;;;33.08;37.28;101032.47;5065906;28;1385;-81
2022/08/31 13:24:27;;;;;;;;;;;;;;;33.56;36.52;101026.63;5058329;28;873;-82
2022/08/31 13:27:07;;;;;;;;;;;;;;;31.76;37.98;101029.78;5056523;28;1198;-82
2022/08/31 13:29:39;;;;;;;;;;;;;;;26.65;45.93;101032.34;5062865;28;1608;-83
2022/08/31 13:32:05;;;;;;;;;;;;;;;24.34;49.59;101035.00;5064407;28;1515;-82
2022/08/31 13:34:40;;;;;;;;;;;;;;;24.41;50.70;101030.41;5076378;28;1186;-83
2022/08/31 13:37:12;;;;;;;;;;;;;;;24.27;52.10;101027.25;5077964;28;829;-83
2022/08/31 13:39:41;;;;;;;;;;;;;;;23.31;54.71;101041.28;5076331;28;1970;-84
2022/08/31 13:42:25;;;;;;;;;;;;;;;22.77;55.96;101031.59;5063366;28;1391;-85
2022/08/31 13:44:52;;;;;;;;;;;;;;;22.54;54.97;101028.44;5057181;28;984;-84
2022/08/31 13:47:20;;;;;;;;;;;;;;;22.30;57.02;101020.84;5056302;28;776;-82
2022/08/31 13:49:50;;;;;;;;;;;;;;;21.95;56.65;101034.34;5061012;28;1660;-84
2022/08/31 13:52:18;;;;;;;;;;;;;;;21.79;56.13;101028.59;5068445;28;1482;-83
2022/08/31 13:54:55;;;;;;;;;;;;;;;21.79;57.14;101017.47;5075557;28;1965;-84
2022/08/31 13:57:24;;;;;;;;;;;;;;;21.83;56.73;101014.81;5076975;28;925;-84
2022/08/31 13:59:50;;;;;;;;;;;;;;;21.78;57.48;101013.03;5076877;28;1588;-83